Time;durP1;ratioP1;P1;durP2;ratioP2;P2;SDS_P1;SDS_P2;PMS_P1;PMS_P2;Temp;Humidity;BMP_temperature;BMP_pressure;BME280_temperature;BME280_humidity;BME280_pressure;Samples;Min_cycle;Max_cycle;Signal;HPM_P1;HPM_P2
2021/11/14 00:00:14;;;;;;;;;;;;;;;;;;351210;28;816;-76
2021/11/14 00:00:27;;;;;;;;;;;;;;;;;;351115;28;977;-77
2021/11/14 00:00:40;;;;;;;;;;;;;;;;;;349781;28;841;-76
2021/11/14 00:00:52;;;;;;;;;;;;;;;;;;349874;28;778;-76
2021/11/14 00:01:04;;;;;;;;;;;;;;;;;;349817;28;923;-77
2021/11/14 00:01:15;;;;;;;;;;;;;;;;;;349890;28;813;-76
2021/11/14 00:01:51;;;;;;;;;;;;;;;;;;349756;28;1010;-78
2021/11/14 00:02:02;;;;;;;;;;;;;;;;;;349812;28;868;-76
2021/11/14 00:02:12;;;;;;;;;;;;;;;;;;349823;28;1216;-77
2021/11/14 00:02:23;;;;;;;;;;;;;;;;;;350692;28;923;-77
2021/11/14 00:02:33;;;;;;;;;;;;;;;;;;351287;28;825;-77
2021/11/14 00:02:43;;;;;;;;;;;;;;;;;;351251;28;801;-76
2021/11/14 00:02:55;;;;;;;;;;;;;;;;;;351334;28;899;-77
2021/11/14 00:03:07;;;;;;;;;;;;;;;;;;351296;28;829;-76
2021/11/14 00:03:17;;;;;;;;;;;;;;;;;;351307;28;920;-77
2021/11/14 00:03:28;;;;;;;;;;;;;;;;;;351257;28;876;-78
2021/11/14 00:03:40;;;;;;;;;;;;;;;;;;351288;28;987;-77
2021/11/14 00:03:50;;;;;;;;;;;;;;;;;;351363;28;884;-77
2021/11/14 00:04:01;;;;;;;;;;;;;;;;;;351279;28;939;-77
2021/11/14 00:04:11;;;;;;;;;;;;;;;;;;351287;28;999;-76
2021/11/14 00:04:22;;;;;;;;;;;;;;;;;;351370;28;813;-77
2021/11/14 00:04:58;;;;;;;;;;;;;;;;;;351230;28;880;-75
2021/11/14 00:05:27;;;;;;;;;;;;;;;;;;351300;28;569;-75
2021/11/14 00:05:57;;;;;;;;;;;;;;;;;;351372;28;576;-77
2021/11/14 00:06:08;;;;;;;;;;;;;;;;;;351293;28;1151;-76
2021/11/14 00:07:00;;;;;;;;;;;;;;;;;;351272;28;1051;-78
2021/11/14 00:07:10;;;;;;;;;;;;;;;;;;351281;28;991;-76
2021/11/14 00:07:23;;;;;;;;;;;;;;;;;;351328;28;860;-78
2021/11/14 00:07:34;;;;;;;;;;;;;;;;;;351325;28;1011;-77
2021/11/14 00:07:44;;;;;;;;;;;;;;;;;;351301;28;797;-76
2021/11/14 00:07:55;;;;;;;;;;;;;;;;;;351271;28;817;-76
2021/11/14 00:08:05;;;;;;;;;;;;;;;;;;351303;28;825;-77
2021/11/14 00:08:16;;;;;;;;;;;;;;;;;;351315;28;904;-77
2021/11/14 00:08:33;;;;;;;;;;;;;;;;;;351306;28;931;-76
2021/11/14 00:08:44;;;;;;;;;;;;;;;;;;351340;28;999;-76
2021/11/14 00:08:54;;;;;;;;;;;;;;;;;;351212;28;1032;-75
2021/11/14 00:09:05;;;;;;;;;;;;;;;;;;351326;28;1682;-77
2021/11/14 00:09:15;;;;;;;;;;;;;;;;;;351264;28;808;-76
2021/11/14 00:09:28;;;;;;;;;;;;;;;;;;351282;28;794;-73
2021/11/14 00:09:38;;;;;;;;;;;;;;;;;;351313;28;817;-74
2021/11/14 00:09:49;;;;;;;;;;;;;;;;;;351336;28;908;-74
2021/11/14 00:11:00;;;;;;;;;;;;;;;;;;351155;28;964;-77
2021/11/14 00:11:13;;;;;;;;;;;;;;;;;;351305;28;805;-77
2021/11/14 00:11:39;;;;;;;;;;;;;;;;;;351289;28;801;-77
2021/11/14 00:11:49;;;;;;;;;;;;;;;;;;351255;28;1090;-77
2021/11/14 00:12:00;;;;;;;;;;;;;;;;;;351306;28;829;-77
2021/11/14 00:12:12;;;;;;;;;;;;;;;;;;351280;28;1047;-77
2021/11/14 00:12:23;;;;;;;;;;;;;;;;;;351306;28;916;-78
2021/11/14 00:12:36;;;;;;;;;;;;;;;;;;351245;28;912;-77
2021/11/14 00:12:47;;;;;;;;;;;;;;;;;;349890;28;901;-77
2021/11/14 00:12:57;;;;;;;;;;;;;;;;;;349872;28;869;-77
2021/11/14 00:13:08;;;;;;;;;;;;;;;;;;349880;28;988;-76
2021/11/14 00:13:19;;;;;;;;;;;;;;;;;;349920;28;979;-76
2021/11/14 00:13:30;;;;;;;;;;;;;;;;;;349895;28;813;-78
2021/11/14 00:13:41;;;;;;;;;;;;;;;;;;349865;28;872;-75
2021/11/14 00:13:51;;;;;;;;;;;;;;;;;;349789;28;1019;-77
2021/11/14 00:14:02;;;;;;;;;;;;;;;;;;349849;28;963;-76
2021/11/14 00:14:12;;;;;;;;;;;;;;;;;;349848;28;829;-76
2021/11/14 00:14:23;;;;;;;;;;;;;;;;;;349752;28;908;-76
2021/11/14 00:14:59;;;;;;;;;;;;;;;;;;349813;28;924;-76
2021/11/14 00:15:10;;;;;;;;;;;;;;;;;;349728;28;888;-76
2021/11/14 00:15:21;;;;;;;;;;;;;;;;;;349688;28;880;-76
2021/11/14 00:15:32;;;;;;;;;;;;;;;;;;349707;28;860;-76
2021/11/14 00:15:42;;;;;;;;;;;;;;;;;;349923;28;964;-77
2021/11/14 00:15:52;;;;;;;;;;;;;;;;;;349875;28;490;-78
2021/11/14 00:16:03;;;;;;;;;;;;;;;;;;349920;28;838;-77
2021/11/14 00:16:15;;;;;;;;;;;;;;;;;;349686;28;1242;-77
2021/11/14 00:16:29;;;;;;;;;;;;;;;;;;349811;28;821;-76
2021/11/14 00:16:39;;;;;;;;;;;;;;;;;;349791;28;1002;-78
2021/11/14 00:16:50;;;;;;;;;;;;;;;;;;349857;28;856;-77
2021/11/14 00:17:01;;;;;;;;;;;;;;;;;;349873;28;904;-75
2021/11/14 00:17:11;;;;;;;;;;;;;;;;;;348443;28;1019;-76
2021/11/14 00:17:21;;;;;;;;;;;;;;;;;;348388;28;806;-76
2021/11/14 00:17:33;;;;;;;;;;;;;;;;;;348241;28;1894;-74
2021/11/14 00:18:09;;;;;;;;;;;;;;;;;;348909;28;893;-77
2021/11/14 00:18:41;;;;;;;;;;;;;;;;;;346934;28;1120;-77
2021/11/14 00:19:07;;;;;;;;;;;;;;;;;;346948;28;948;-76
2021/11/14 00:19:17;;;;;;;;;;;;;;;;;;347000;28;1082;-77
2021/11/14 00:19:28;;;;;;;;;;;;;;;;;;346971;28;826;-78
2021/11/14 00:19:38;;;;;;;;;;;;;;;;;;346917;28;952;-77
2021/11/14 00:19:49;;;;;;;;;;;;;;;;;;346877;28;1004;-77
2021/11/14 00:20:00;;;;;;;;;;;;;;;;;;347002;28;901;-76
2021/11/14 00:20:11;;;;;;;;;;;;;;;;;;347020;28;888;-77
2021/11/14 00:20:22;;;;;;;;;;;;;;;;;;346924;28;1023;-76
2021/11/14 00:20:32;;;;;;;;;;;;;;;;;;346871;28;904;-76
2021/11/14 00:20:43;;;;;;;;;;;;;;;;;;347001;28;1189;-76
2021/11/14 00:21:03;;;;;;;;;;;;;;;;;;347074;28;877;-77
2021/11/14 00:21:15;;;;;;;;;;;;;;;;;;346942;28;921;-76
2021/11/14 00:21:26;;;;;;;;;;;;;;;;;;346967;28;1138;-76
2021/11/14 00:22:05;;;;;;;;;;;;;;;;;;346946;28;981;-76
2021/11/14 00:22:18;;;;;;;;;;;;;;;;;;347013;28;841;-77
2021/11/14 00:22:28;;;;;;;;;;;;;;;;;;347020;28;912;-77
2021/11/14 00:23:07;;;;;;;;;;;;;;;;;;345580;28;1013;-76
2021/11/14 00:23:18;;;;;;;;;;;;;;;;;;345701;28;897;-76
2021/11/14 00:25:18;;;;;;;;;;;;;;;;;;347082;28;873;-75
2021/11/14 00:25:29;;;;;;;;;;;;;;;;;;346885;28;916;-77
2021/11/14 00:25:39;;;;;;;;;;;;;;;;;;346924;28;1012;-75
2021/11/14 00:25:50;;;;;;;;;;;;;;;;;;347015;28;837;-74
2021/11/14 00:26:01;;;;;;;;;;;;;;;;;;347011;28;849;-75
2021/11/14 00:26:11;;;;;;;;;;;;;;;;;;347043;28;920;-77
2021/11/14 00:26:22;;;;;;;;;;;;;;;;;;346856;28;969;-77
2021/11/14 00:26:32;;;;;;;;;;;;;;;;;;347007;28;1028;-76
2021/11/14 00:26:43;;;;;;;;;;;;;;;;;;347030;28;968;-76
2021/11/14 00:26:54;;;;;;;;;;;;;;;;;;347054;28;813;-77
2021/11/14 00:27:04;;;;;;;;;;;;;;;;;;347056;28;917;-77
2021/11/14 00:27:14;;;;;;;;;;;;;;;;;;347041;28;1027;-77
2021/11/14 00:27:25;;;;;;;;;;;;;;;;;;346980;28;798;-77
2021/11/14 00:27:35;;;;;;;;;;;;;;;;;;346939;28;798;-77
2021/11/14 00:27:47;;;;;;;;;;;;;;;;;;347041;28;802;-76
2021/11/14 00:27:58;;;;;;;;;;;;;;;;;;345670;28;1067;-74
2021/11/14 00:28:11;;;;;;;;;;;;;;;;;;345685;28;861;-75
2021/11/14 00:28:22;;;;;;;;;;;;;;;;;;344282;28;953;-74
2021/11/14 00:28:32;;;;;;;;;;;;;;;;;;342748;28;1477;-75
2021/11/14 00:28:43;;;;;;;;;;;;;;;;;;342960;28;1143;-76
2021/11/14 00:28:53;;;;;;;;;;;;;;;;;;342948;28;978;-75
2021/11/14 00:29:04;;;;;;;;;;;;;;;;;;342970;28;969;-76
2021/11/14 00:29:15;;;;;;;;;;;;;;;;;;341515;29;1321;-76
2021/11/14 00:29:51;;;;;;;;;;;;;;;;;;341860;28;988;-76
2021/11/14 00:30:21;;;;;;;;;;;;;;;;;;343010;28;1003;-77
2021/11/14 00:30:38;;;;;;;;;;;;;;;;;;338941;29;1128;-73
2021/11/14 00:30:49;;;;;;;;;;;;;;;;;;338859;29;1068;-78
2021/11/14 00:30:59;;;;;;;;;;;;;;;;;;340277;29;890;-77
2021/11/14 00:31:14;;;;;;;;;;;;;;;;;;340665;29;999;-77
2021/11/14 00:31:24;;;;;;;;;;;;;;;;;;341637;29;918;-76
2021/11/14 00:31:35;;;;;;;;;;;;;;;;;;341641;29;890;-75
2021/11/14 00:31:46;;;;;;;;;;;;;;;;;;341626;29;977;-76
2021/11/14 00:32:23;;;;;;;;;;;;;;;;;;341616;29;820;-77
2021/11/14 00:32:34;;;;;;;;;;;;;;;;;;341666;29;842;-76
2021/11/14 00:32:44;;;;;;;;;;;;;;;;;;341594;29;929;-76
2021/11/14 00:32:55;;;;;;;;;;;;;;;;;;341101;29;1045;-77
2021/11/14 00:33:09;;;;;;;;;;;;;;;;;;340166;29;958;-77
2021/11/14 00:33:21;;;;;;;;;;;;;;;;;;340271;29;982;-75
2021/11/14 00:33:31;;;;;;;;;;;;;;;;;;340265;29;910;-77
2021/11/14 00:33:44;;;;;;;;;;;;;;;;;;341550;29;1432;-78
2021/11/14 00:34:20;;;;;;;;;;;;;;;;;;341535;29;1114;-77
2021/11/14 00:34:30;;;;;;;;;;;;;;;;;;341597;29;854;-78
2021/11/14 00:34:41;;;;;;;;;;;;;;;;;;341675;29;934;-76
2021/11/14 00:34:52;;;;;;;;;;;;;;;;;;341692;28;917;-76
2021/11/14 00:35:03;;;;;;;;;;;;;;;;;;341596;29;893;-76
2021/11/14 00:35:15;;;;;;;;;;;;;;;;;;341500;29;982;-75
2021/11/14 00:35:26;;;;;;;;;;;;;;;;;;341579;29;922;-76
2021/11/14 00:35:37;;;;;;;;;;;;;;;;;;341134;29;914;-77
2021/11/14 00:35:51;;;;;;;;;;;;;;;;;;340330;29;856;-77
2021/11/14 00:36:02;;;;;;;;;;;;;;;;;;340535;29;926;-74
2021/11/14 00:36:17;;;;;;;;;;;;;;;;;;340566;29;997;-78
2021/11/14 00:36:28;;;;;;;;;;;;;;;;;;341729;28;1299;-74
2021/11/14 00:36:42;;;;;;;;;;;;;;;;;;347282;28;834;-76
2021/11/14 00:36:54;;;;;;;;;;;;;;;;;;345929;28;842;-77
2021/11/14 00:37:04;;;;;;;;;;;;;;;;;;345891;28;929;-75
2021/11/14 00:37:41;;;;;;;;;;;;;;;;;;345685;28;1404;-74
2021/11/14 00:38:18;;;;;;;;;;;;;;;;;;345801;28;1110;-74
2021/11/14 00:38:28;;;;;;;;;;;;;;;;;;345834;28;972;-78
2021/11/14 00:38:39;;;;;;;;;;;;;;;;;;345931;28;972;-74
2021/11/14 00:38:51;;;;;;;;;;;;;;;;;;346603;28;845;-77
2021/11/14 00:39:01;;;;;;;;;;;;;;;;;;347272;28;931;-74
2021/11/14 00:39:13;;;;;;;;;;;;;;;;;;347234;28;893;-76
2021/11/14 00:39:24;;;;;;;;;;;;;;;;;;345900;28;977;-77
2021/11/14 00:39:34;;;;;;;;;;;;;;;;;;345765;28;1404;-77
2021/11/14 00:39:45;;;;;;;;;;;;;;;;;;345803;28;829;-77
2021/11/14 00:40:14;;;;;;;;;;;;;;;;;;345901;28;985;-77
2021/11/14 00:40:27;;;;;;;;;;;;;;;;;;345845;28;794;-74
2021/11/14 00:40:39;;;;;;;;;;;;;;;;;;345839;28;904;-74
2021/11/14 00:40:49;;;;;;;;;;;;;;;;;;345756;28;1063;-77
2021/11/14 00:41:00;;;;;;;;;;;;;;;;;;345863;28;1056;-76
2021/11/14 00:41:26;;;;;;;;;;;;;;;;;;345899;28;921;-76
2021/11/14 00:41:36;;;;;;;;;;;;;;;;;;345842;28;858;-77
2021/11/14 00:41:47;;;;;;;;;;;;;;;;;;345850;28;909;-77
2021/11/14 00:41:57;;;;;;;;;;;;;;;;;;345828;28;960;-76
2021/11/14 00:42:34;;;;;;;;;;;;;;;;;;345853;28;1032;-75
2021/11/14 00:42:45;;;;;;;;;;;;;;;;;;344999;28;1192;-76
2021/11/14 00:43:22;;;;;;;;;;;;;;;;;;345869;28;869;-78
2021/11/14 00:43:36;;;;;;;;;;;;;;;;;;345863;28;754;-76
2021/11/14 00:43:46;;;;;;;;;;;;;;;;;;345854;28;933;-74
2021/11/14 00:43:56;;;;;;;;;;;;;;;;;;345901;28;996;-75
2021/11/14 00:44:13;;;;;;;;;;;;;;;;;;345717;28;1157;-74
2021/11/14 00:44:23;;;;;;;;;;;;;;;;;;345869;28;964;-76
2021/11/14 00:44:39;;;;;;;;;;;;;;;;;;345909;28;1126;-77
2021/11/14 00:44:50;;;;;;;;;;;;;;;;;;346684;28;1055;-76
2021/11/14 00:45:00;;;;;;;;;;;;;;;;;;345892;28;1024;-76
2021/11/14 00:45:11;;;;;;;;;;;;;;;;;;344523;28;1067;-76
2021/11/14 00:45:22;;;;;;;;;;;;;;;;;;344537;28;988;-77
2021/11/14 00:45:34;;;;;;;;;;;;;;;;;;345403;28;826;-77
2021/11/14 00:45:45;;;;;;;;;;;;;;;;;;345819;28;889;-78
2021/11/14 00:45:55;;;;;;;;;;;;;;;;;;345735;28;933;-75
2021/11/14 00:46:06;;;;;;;;;;;;;;;;;;345844;28;1019;-77
2021/11/14 00:46:43;;;;;;;;;;;;;;;;;;345810;28;921;-77
2021/11/14 00:46:53;;;;;;;;;;;;;;;;;;345908;28;1154;-78
2021/11/14 00:47:04;;;;;;;;;;;;;;;;;;346079;28;909;-77
2021/11/14 00:47:14;;;;;;;;;;;;;;;;;;347253;28;976;-77
2021/11/14 00:47:25;;;;;;;;;;;;;;;;;;347210;28;984;-77
2021/11/14 00:47:35;;;;;;;;;;;;;;;;;;347258;28;972;-77
2021/11/14 00:47:46;;;;;;;;;;;;;;;;;;347260;28;980;-75
2021/11/14 00:47:57;;;;;;;;;;;;;;;;;;347307;28;944;-76
2021/11/14 00:48:08;;;;;;;;;;;;;;;;;;347244;28;869;-75
2021/11/14 00:48:18;;;;;;;;;;;;;;;;;;347242;28;968;-75
2021/11/14 00:48:34;;;;;;;;;;;;;;;;;;347098;28;1015;-74
2021/11/14 00:49:00;;;;;;;;;;;;;;;;;;347242;28;865;-77
2021/11/14 00:49:36;;;;;;;;;;;;;;;;;;347270;28;984;-75
2021/11/14 00:49:47;;;;;;;;;;;;;;;;;;347242;28;747;-75
2021/11/14 00:49:57;;;;;;;;;;;;;;;;;;347260;28;1061;-75
2021/11/14 00:50:23;;;;;;;;;;;;;;;;;;347199;28;848;-74
2021/11/14 00:50:49;;;;;;;;;;;;;;;;;;347121;28;1001;-75
2021/11/14 00:51:23;;;;;;;;;;;;;;;;;;347241;28;569;-76
2021/11/14 00:51:34;;;;;;;;;;;;;;;;;;347223;28;854;-76
2021/11/14 00:51:44;;;;;;;;;;;;;;;;;;345922;28;790;-76
2021/11/14 00:51:55;;;;;;;;;;;;;;;;;;345944;28;782;-75
2021/11/14 00:52:05;;;;;;;;;;;;;;;;;;345901;28;889;-76
2021/11/14 00:52:16;;;;;;;;;;;;;;;;;;345911;28;814;-76
2021/11/14 00:53:21;;;;;;;;;;;;;;;;;;345735;28;1480;-73
2021/11/14 00:53:40;;;;;;;;;;;;;;;;;;345870;28;993;-74
2021/11/14 00:53:51;;;;;;;;;;;;;;;;;;347243;28;1691;-76
2021/11/14 00:54:03;;;;;;;;;;;;;;;;;;347224;28;790;-77
2021/11/14 00:54:30;;;;;;;;;;;;;;;;;;347227;28;957;-74
2021/11/14 00:54:40;;;;;;;;;;;;;;;;;;347187;28;1000;-76
2021/11/14 00:54:50;;;;;;;;;;;;;;;;;;347251;28;845;-77
2021/11/14 00:55:01;;;;;;;;;;;;;;;;;;347259;28;987;-75
2021/11/14 00:55:30;;;;;;;;;;;;;;;;;;347111;28;1043;-76
2021/11/14 00:55:40;;;;;;;;;;;;;;;;;;347225;28;849;-78
2021/11/14 00:55:51;;;;;;;;;;;;;;;;;;347199;28;976;-77
2021/11/14 00:56:02;;;;;;;;;;;;;;;;;;347089;28;1051;-76
2021/11/14 00:56:12;;;;;;;;;;;;;;;;;;347201;28;834;-76
2021/11/14 00:56:48;;;;;;;;;;;;;;;;;;347238;28;825;-77
2021/11/14 00:56:59;;;;;;;;;;;;;;;;;;348486;28;1164;-76
2021/11/14 00:57:09;;;;;;;;;;;;;;;;;;350141;28;968;-75
2021/11/14 00:57:19;;;;;;;;;;;;;;;;;;350158;28;865;-76
2021/11/14 00:57:30;;;;;;;;;;;;;;;;;;349938;28;1981;-75
2021/11/14 00:57:40;;;;;;;;;;;;;;;;;;350045;28;1031;-74
2021/11/14 00:58:19;;;;;;;;;;;;;;;;;;350106;28;976;-76
2021/11/14 00:58:30;;;;;;;;;;;;;;;;;;350172;28;801;-77
2021/11/14 00:58:40;;;;;;;;;;;;;;;;;;350117;28;972;-74
2021/11/14 00:58:51;;;;;;;;;;;;;;;;;;350115;28;798;-75
2021/11/14 00:59:02;;;;;;;;;;;;;;;;;;351436;28;869;-77
2021/11/14 00:59:13;;;;;;;;;;;;;;;;;;351480;28;932;-76
2021/11/14 00:59:23;;;;;;;;;;;;;;;;;;351365;28;917;-77
2021/11/14 00:59:33;;;;;;;;;;;;;;;;;;351397;28;933;-76
2021/11/14 00:59:44;;;;;;;;;;;;;;;;;;351280;28;980;-77
2021/11/14 00:59:54;;;;;;;;;;;;;;;;;;351403;28;830;-77
2021/11/14 01:00:19;;;;;;;;;;;;;;;;;;351382;28;872;-77
2021/11/14 01:00:30;;;;;;;;;;;;;;;;;;351471;28;990;-77
2021/11/14 01:00:49;;;;;;;;;;;;;;;;;;351457;28;940;-77
2021/11/14 01:01:00;;;;;;;;;;;;;;;;;;350529;28;885;-76
2021/11/14 01:01:25;;;;;;;;;;;;;;;;;;350044;28;936;-77
2021/11/14 01:01:51;;;;;;;;;;;;;;;;;;350161;28;849;-77
2021/11/14 01:02:05;;;;;;;;;;;;;;;;;;350021;28;845;-77
2021/11/14 01:02:15;;;;;;;;;;;;;;;;;;350174;28;806;-77
2021/11/14 01:02:25;;;;;;;;;;;;;;;;;;350101;28;987;-77
2021/11/14 01:03:03;;;;;;;;;;;;;;;;;;350072;28;945;-78
2021/11/14 01:03:14;;;;;;;;;;;;;;;;;;350128;28;814;-75
2021/11/14 01:03:24;;;;;;;;;;;;;;;;;;350165;28;956;-75
2021/11/14 01:03:35;;;;;;;;;;;;;;;;;;350114;28;854;-76
2021/11/14 01:04:16;;;;;;;;;;;;;;;;;;347101;28;1101;-74
2021/11/14 01:04:26;;;;;;;;;;;;;;;;;;347245;28;715;-74
2021/11/14 01:04:48;;;;;;;;;;;;;;;;;;348938;28;1025;-75
2021/11/14 01:04:59;;;;;;;;;;;;;;;;;;349926;28;813;-77
2021/11/14 01:05:11;;;;;;;;;;;;;;;;;;350038;28;960;-76
2021/11/14 01:05:22;;;;;;;;;;;;;;;;;;349997;28;916;-78
2021/11/14 01:05:33;;;;;;;;;;;;;;;;;;350052;28;798;-77
2021/11/14 01:05:43;;;;;;;;;;;;;;;;;;350056;28;889;-75
2021/11/14 01:05:54;;;;;;;;;;;;;;;;;;350068;28;928;-74
2021/11/14 01:06:04;;;;;;;;;;;;;;;;;;349899;28;802;-74
2021/11/14 01:06:15;;;;;;;;;;;;;;;;;;349933;28;971;-73
2021/11/14 01:06:25;;;;;;;;;;;;;;;;;;349919;28;821;-74
2021/11/14 01:06:35;;;;;;;;;;;;;;;;;;350021;28;1026;-74
2021/11/14 01:06:46;;;;;;;;;;;;;;;;;;349968;28;984;-75
2021/11/14 01:06:57;;;;;;;;;;;;;;;;;;350117;28;901;-73
2021/11/14 01:07:09;;;;;;;;;;;;;;;;;;350062;28;997;-77
2021/11/14 01:07:20;;;;;;;;;;;;;;;;;;349918;28;1297;-75
2021/11/14 01:07:39;;;;;;;;;;;;;;;;;;350014;28;794;-76
2021/11/14 01:07:50;;;;;;;;;;;;;;;;;;349984;28;996;-73
2021/11/14 01:08:02;;;;;;;;;;;;;;;;;;350057;28;921;-77
2021/11/14 01:08:12;;;;;;;;;;;;;;;;;;349988;28;992;-77
2021/11/14 01:08:23;;;;;;;;;;;;;;;;;;348507;28;1814;-77
2021/11/14 01:08:34;;;;;;;;;;;;;;;;;;348596;28;795;-77
2021/11/14 01:09:03;;;;;;;;;;;;;;;;;;348605;28;921;-78
2021/11/14 01:09:13;;;;;;;;;;;;;;;;;;348979;28;1004;-77
2021/11/14 01:10:45;;;;;;;;;;;;;;;;;;350023;28;510;-75
2021/11/14 01:10:57;;;;;;;;;;;;;;;;;;350133;28;591;-77
2021/11/14 01:11:08;;;;;;;;;;;;;;;;;;349997;28;868;-77
2021/11/14 01:12:00;;;;;;;;;;;;;;;;;;350083;28;833;-77
2021/11/14 01:12:10;;;;;;;;;;;;;;;;;;350085;28;987;-76
2021/11/14 01:12:24;;;;;;;;;;;;;;;;;;350114;28;979;-76
2021/11/14 01:12:34;;;;;;;;;;;;;;;;;;350180;28;1299;-77
2021/11/14 01:12:45;;;;;;;;;;;;;;;;;;351494;28;861;-77
2021/11/14 01:12:56;;;;;;;;;;;;;;;;;;351444;28;801;-76
2021/11/14 01:13:07;;;;;;;;;;;;;;;;;;351452;28;852;-76
2021/11/14 01:13:18;;;;;;;;;;;;;;;;;;351539;28;923;-75
2021/11/14 01:13:28;;;;;;;;;;;;;;;;;;351502;28;1016;-77
2021/11/14 01:13:39;;;;;;;;;;;;;;;;;;351481;28;1171;-76
2021/11/14 01:13:51;;;;;;;;;;;;;;;;;;351474;28;1007;-77
2021/11/14 01:14:01;;;;;;;;;;;;;;;;;;351434;28;916;-73
2021/11/14 01:14:12;;;;;;;;;;;;;;;;;;351555;28;442;-72
2021/11/14 01:14:22;;;;;;;;;;;;;;;;;;351449;28;936;-77
2021/11/14 01:14:35;;;;;;;;;;;;;;;;;;351543;28;805;-74
2021/11/14 01:15:13;;;;;;;;;;;;;;;;;;351279;28;944;-77
2021/11/14 01:15:24;;;;;;;;;;;;;;;;;;351398;28;829;-77
2021/11/14 01:15:35;;;;;;;;;;;;;;;;;;350028;28;929;-77
2021/11/14 01:15:47;;;;;;;;;;;;;;;;;;349983;28;873;-75
2021/11/14 01:16:13;;;;;;;;;;;;;;;;;;350000;28;763;-77
2021/11/14 01:16:24;;;;;;;;;;;;;;;;;;349859;28;881;-76
2021/11/14 01:16:35;;;;;;;;;;;;;;;;;;349992;28;932;-77
2021/11/14 01:17:11;;;;;;;;;;;;;;;;;;350022;28;936;-77
2021/11/14 01:17:22;;;;;;;;;;;;;;;;;;348415;28;1333;-78
2021/11/14 01:17:33;;;;;;;;;;;;;;;;;;349421;28;1959;-78
2021/11/14 01:17:43;;;;;;;;;;;;;;;;;;350012;28;896;-77
2021/11/14 01:17:54;;;;;;;;;;;;;;;;;;349986;28;932;-77
2021/11/14 01:18:39;;;;;;;;;;;;;;;;;;350002;28;822;-78
2021/11/14 01:18:50;;;;;;;;;;;;;;;;;;351395;28;837;-77
2021/11/14 01:19:01;;;;;;;;;;;;;;;;;;351457;28;920;-78
2021/11/14 01:19:11;;;;;;;;;;;;;;;;;;351375;28;806;-78
2021/11/14 01:19:22;;;;;;;;;;;;;;;;;;351448;28;824;-76
2021/11/14 01:19:32;;;;;;;;;;;;;;;;;;351370;28;817;-78
2021/11/14 01:19:42;;;;;;;;;;;;;;;;;;351224;28;893;-78
2021/11/14 01:19:57;;;;;;;;;;;;;;;;;;351477;28;832;-75
2021/11/14 01:20:09;;;;;;;;;;;;;;;;;;351400;28;1022;-76
2021/11/14 01:20:25;;;;;;;;;;;;;;;;;;351364;28;967;-78
2021/11/14 01:20:40;;;;;;;;;;;;;;;;;;351357;28;986;-76
2021/11/14 01:21:18;;;;;;;;;;;;;;;;;;351320;28;960;-76
2021/11/14 01:21:29;;;;;;;;;;;;;;;;;;351252;28;924;-76
2021/11/14 01:21:45;;;;;;;;;;;;;;;;;;351304;28;1035;-76
2021/11/14 01:21:56;;;;;;;;;;;;;;;;;;351419;28;795;-78
2021/11/14 01:22:06;;;;;;;;;;;;;;;;;;351519;28;872;-77
2021/11/14 01:22:17;;;;;;;;;;;;;;;;;;351485;28;987;-77
2021/11/14 01:22:27;;;;;;;;;;;;;;;;;;351488;28;1157;-77
2021/11/14 01:22:39;;;;;;;;;;;;;;;;;;351500;28;829;-77
2021/11/14 01:22:51;;;;;;;;;;;;;;;;;;351451;28;995;-77
2021/11/14 01:23:03;;;;;;;;;;;;;;;;;;351467;28;1031;-77
2021/11/14 01:23:16;;;;;;;;;;;;;;;;;;351541;28;887;-76
2021/11/14 01:23:26;;;;;;;;;;;;;;;;;;351516;28;834;-74
2021/11/14 01:23:36;;;;;;;;;;;;;;;;;;351538;28;798;-74
2021/11/14 01:23:48;;;;;;;;;;;;;;;;;;351423;28;967;-74
2021/11/14 01:24:00;;;;;;;;;;;;;;;;;;351532;28;980;-77
2021/11/14 01:24:10;;;;;;;;;;;;;;;;;;351372;28;829;-74
2021/11/14 01:24:20;;;;;;;;;;;;;;;;;;351497;28;797;-75
2021/11/14 01:24:31;;;;;;;;;;;;;;;;;;351526;28;833;-74
2021/11/14 01:24:41;;;;;;;;;;;;;;;;;;351538;28;849;-76
2021/11/14 01:24:51;;;;;;;;;;;;;;;;;;351449;28;960;-78
2021/11/14 01:25:55;;;;;;;;;;;;;;;;;;351449;28;972;-75
2021/11/14 01:26:31;;;;;;;;;;;;;;;;;;351380;28;809;-73
2021/11/14 01:26:57;;;;;;;;;;;;;;;;;;351367;28;980;-74
2021/11/14 01:27:08;;;;;;;;;;;;;;;;;;351468;28;916;-76
2021/11/14 01:27:18;;;;;;;;;;;;;;;;;;351396;28;1028;-76
2021/11/14 01:27:29;;;;;;;;;;;;;;;;;;351523;28;911;-76
2021/11/14 01:27:39;;;;;;;;;;;;;;;;;;351334;28;1392;-77
2021/11/14 01:27:50;;;;;;;;;;;;;;;;;;351399;28;1019;-74
2021/11/14 01:28:00;;;;;;;;;;;;;;;;;;351417;28;924;-74
2021/11/14 01:28:11;;;;;;;;;;;;;;;;;;351393;28;857;-75
2021/11/14 01:28:21;;;;;;;;;;;;;;;;;;351402;28;940;-76
2021/11/14 01:28:32;;;;;;;;;;;;;;;;;;351326;28;857;-73
2021/11/14 01:28:42;;;;;;;;;;;;;;;;;;351344;28;999;-76
2021/11/14 01:28:53;;;;;;;;;;;;;;;;;;351330;28;1063;-76
2021/11/14 01:29:03;;;;;;;;;;;;;;;;;;351394;28;932;-75
2021/11/14 01:29:40;;;;;;;;;;;;;;;;;;351416;28;1059;-75
2021/11/14 01:29:50;;;;;;;;;;;;;;;;;;351248;28;1491;-75
2021/11/14 01:30:02;;;;;;;;;;;;;;;;;;351332;28;908;-75
2021/11/14 01:31:08;;;;;;;;;;;;;;;;;;351384;28;960;-78
2021/11/14 01:31:19;;;;;;;;;;;;;;;;;;351377;28;968;-76
2021/11/14 01:31:29;;;;;;;;;;;;;;;;;;351369;28;1163;-75
2021/11/14 01:31:40;;;;;;;;;;;;;;;;;;351267;28;828;-74
2021/11/14 01:32:02;;;;;;;;;;;;;;;;;;351322;28;916;-74
2021/11/14 01:32:39;;;;;;;;;;;;;;;;;;351462;28;984;-73
2021/11/14 01:32:50;;;;;;;;;;;;;;;;;;351483;28;782;-73
2021/11/14 01:33:01;;;;;;;;;;;;;;;;;;351392;28;1000;-73
2021/11/14 01:33:14;;;;;;;;;;;;;;;;;;351528;28;983;-73
2021/11/14 01:33:33;;;;;;;;;;;;;;;;;;351515;28;836;-73
2021/11/14 01:33:44;;;;;;;;;;;;;;;;;;351425;28;842;-74
2021/11/14 01:34:20;;;;;;;;;;;;;;;;;;351403;28;984;-75
2021/11/14 01:34:31;;;;;;;;;;;;;;;;;;351510;28;829;-74
2021/11/14 01:34:41;;;;;;;;;;;;;;;;;;351436;28;853;-74
2021/11/14 01:34:52;;;;;;;;;;;;;;;;;;351479;28;964;-74
2021/11/14 01:35:03;;;;;;;;;;;;;;;;;;351472;28;1039;-73
2021/11/14 01:35:14;;;;;;;;;;;;;;;;;;351427;28;797;-73
2021/11/14 01:35:25;;;;;;;;;;;;;;;;;;351448;28;992;-73
2021/11/14 01:35:36;;;;;;;;;;;;;;;;;;351513;28;1039;-74
2021/11/14 01:36:02;;;;;;;;;;;;;;;;;;351473;28;1043;-75
2021/11/14 01:36:12;;;;;;;;;;;;;;;;;;351309;28;1244;-75
2021/11/14 01:36:23;;;;;;;;;;;;;;;;;;351382;28;801;-74
2021/11/14 01:36:36;;;;;;;;;;;;;;;;;;351405;28;837;-74
2021/11/14 01:36:46;;;;;;;;;;;;;;;;;;351287;28;904;-74
2021/11/14 01:37:12;;;;;;;;;;;;;;;;;;348474;28;1573;-73
2021/11/14 01:37:22;;;;;;;;;;;;;;;;;;348453;28;988;-73
2021/11/14 01:37:33;;;;;;;;;;;;;;;;;;348510;28;1971;-74
2021/11/14 01:37:44;;;;;;;;;;;;;;;;;;348418;28;1231;-76
2021/11/14 01:37:55;;;;;;;;;;;;;;;;;;348552;28;1028;-74
2021/11/14 01:38:06;;;;;;;;;;;;;;;;;;348861;28;861;-77
2021/11/14 01:38:17;;;;;;;;;;;;;;;;;;350064;28;956;-73
2021/11/14 01:38:28;;;;;;;;;;;;;;;;;;349936;28;916;-74
2021/11/14 01:38:38;;;;;;;;;;;;;;;;;;350014;28;885;-73
2021/11/14 01:38:49;;;;;;;;;;;;;;;;;;350175;28;1022;-73
2021/11/14 01:39:00;;;;;;;;;;;;;;;;;;351498;28;865;-74
2021/11/14 01:39:11;;;;;;;;;;;;;;;;;;351454;28;912;-74
2021/11/14 01:39:21;;;;;;;;;;;;;;;;;;351478;28;853;-74
2021/11/14 01:39:32;;;;;;;;;;;;;;;;;;351338;28;881;-74
2021/11/14 01:39:43;;;;;;;;;;;;;;;;;;351288;28;932;-74
2021/11/14 01:39:53;;;;;;;;;;;;;;;;;;351469;28;837;-75
2021/11/14 01:40:04;;;;;;;;;;;;;;;;;;351339;28;1212;-76
2021/11/14 01:40:17;;;;;;;;;;;;;;;;;;351379;28;1066;-73
2021/11/14 01:40:35;;;;;;;;;;;;;;;;;;351304;28;1035;-75
2021/11/14 01:40:47;;;;;;;;;;;;;;;;;;351406;28;891;-75
2021/11/14 01:41:00;;;;;;;;;;;;;;;;;;351383;28;849;-76
2021/11/14 01:41:37;;;;;;;;;;;;;;;;;;351441;28;1004;-75
2021/11/14 01:41:47;;;;;;;;;;;;;;;;;;351423;28;1011;-73
2021/11/14 01:41:58;;;;;;;;;;;;;;;;;;351266;28;1026;-75
2021/11/14 01:42:08;;;;;;;;;;;;;;;;;;351547;28;813;-73
2021/11/14 01:42:19;;;;;;;;;;;;;;;;;;351464;28;908;-74
2021/11/14 01:42:29;;;;;;;;;;;;;;;;;;351467;28;1034;-74
2021/11/14 01:42:40;;;;;;;;;;;;;;;;;;351452;28;999;-74
2021/11/14 01:43:32;;;;;;;;;;;;;;;;;;351259;28;978;-74
2021/11/14 01:43:52;;;;;;;;;;;;;;;;;;349917;28;916;-76
2021/11/14 01:44:02;;;;;;;;;;;;;;;;;;348484;28;1184;-75
2021/11/14 01:44:13;;;;;;;;;;;;;;;;;;348596;28;983;-74
2021/11/14 01:44:24;;;;;;;;;;;;;;;;;;348602;28;1027;-77
2021/11/14 01:44:35;;;;;;;;;;;;;;;;;;347268;28;901;-77
2021/11/14 01:44:45;;;;;;;;;;;;;;;;;;347221;28;963;-75
2021/11/14 01:44:55;;;;;;;;;;;;;;;;;;347257;28;829;-74
2021/11/14 01:45:06;;;;;;;;;;;;;;;;;;347259;28;806;-75
2021/11/14 01:45:17;;;;;;;;;;;;;;;;;;348526;28;1027;-74
2021/11/14 01:45:28;;;;;;;;;;;;;;;;;;348556;28;1107;-74
2021/11/14 01:45:39;;;;;;;;;;;;;;;;;;349363;28;987;-73
2021/11/14 01:45:50;;;;;;;;;;;;;;;;;;349947;28;931;-74
2021/11/14 01:46:01;;;;;;;;;;;;;;;;;;351018;28;1011;-74
2021/11/14 01:46:12;;;;;;;;;;;;;;;;;;349893;28;1531;-76
2021/11/14 01:46:23;;;;;;;;;;;;;;;;;;349838;28;825;-74
2021/11/14 01:46:33;;;;;;;;;;;;;;;;;;349775;28;991;-74
2021/11/14 01:46:44;;;;;;;;;;;;;;;;;;349857;28;887;-73
2021/11/14 01:46:55;;;;;;;;;;;;;;;;;;349894;28;852;-74
2021/11/14 01:47:05;;;;;;;;;;;;;;;;;;351025;28;960;-73
2021/11/14 01:47:16;;;;;;;;;;;;;;;;;;351358;28;859;-75
2021/11/14 01:47:26;;;;;;;;;;;;;;;;;;351378;28;940;-74
2021/11/14 01:47:37;;;;;;;;;;;;;;;;;;351338;28;904;-73
2021/11/14 01:47:48;;;;;;;;;;;;;;;;;;351308;28;1039;-74